createdAt,value
2022-09-18T00:01:13.686Z,7.90
2022-09-18T00:03:16.146Z,7.90
2022-09-18T00:05:17.963Z,8.00
2022-09-18T00:07:19.847Z,8.00
2022-09-18T00:09:22.052Z,8.00
2022-09-18T00:11:24.544Z,8.00
2022-09-18T00:13:26.143Z,8.00
2022-09-18T00:15:27.786Z,8.00
2022-09-18T00:17:29.410Z,8.00
2022-09-18T00:19:32.059Z,8.00
2022-09-18T00:21:35.819Z,8.10
2022-09-18T00:23:37.732Z,8.10
2022-09-18T00:25:41.571Z,8.00
2022-09-18T00:27:43.242Z,8.10
2022-09-18T00:29:44.870Z,8.10
2022-09-18T00:31:46.684Z,8.10
2022-09-18T00:33:48.469Z,8.10
2022-09-18T00:35:50.140Z,8.10
2022-09-18T00:37:51.847Z,8.10
2022-09-18T00:39:53.715Z,8.10
2022-09-18T00:41:55.425Z,8.10
2022-09-18T00:44:15.461Z,8.10
2022-09-18T00:46:21.780Z,8.10
2022-09-18T00:48:24.776Z,8.20
2022-09-18T00:50:27.253Z,8.10
2022-09-18T00:52:31.967Z,8.10
2022-09-18T00:54:54.401Z,8.10
2022-09-18T00:56:59.107Z,8.20
2022-09-18T00:59:00.941Z,8.30
2022-09-18T01:01:02.732Z,8.20
2022-09-18T01:03:04.483Z,8.20
2022-09-18T01:05:06.843Z,8.20
2022-09-18T01:07:25.246Z,8.20
2022-09-18T01:09:34.979Z,8.20
2022-09-18T01:11:39.566Z,8.20
2022-09-18T01:13:50.401Z,8.20
2022-09-18T01:15:52.590Z,8.20
2022-09-18T01:17:54.320Z,8.30
2022-09-18T01:20:17.800Z,8.30
2022-09-18T01:22:27.991Z,8.30
2022-09-18T01:24:48.475Z,8.30
2022-09-18T01:26:50.079Z,8.20
2022-09-18T01:28:51.670Z,8.20
2022-09-18T01:30:55.971Z,8.40
2022-09-18T01:32:59.944Z,8.30
2022-09-18T01:35:39.410Z,8.30
2022-09-18T01:38:02.362Z,8.30
2022-09-18T01:40:12.945Z,8.30
2022-09-18T01:42:16.063Z,8.20
2022-09-18T01:44:20.422Z,8.20
2022-09-18T01:46:23.314Z,8.30
2022-09-18T01:48:32.819Z,8.30
2022-09-18T01:50:37.897Z,8.30
2022-09-18T01:52:41.966Z,8.30
2022-09-18T01:54:44.427Z,8.20
2022-09-18T01:57:02.277Z,8.20
2022-09-18T01:59:07.539Z,8.20
2022-09-18T02:01:13.156Z,8.20
2022-09-18T02:03:23.442Z,8.20
2022-09-18T02:05:27.657Z,8.20
2022-09-18T02:07:55.398Z,8.20
2022-09-18T02:09:57.433Z,8.20
2022-09-18T02:12:00.599Z,8.20
2022-09-18T02:14:02.171Z,8.20
2022-09-18T02:16:07.504Z,8.20
2022-09-18T02:18:12.029Z,8.30
2022-09-18T02:20:20.679Z,8.30
2022-09-18T02:22:24.543Z,8.30
2022-09-18T02:24:28.758Z,8.30
2022-09-18T02:26:31.651Z,8.30
2022-09-18T02:28:34.428Z,8.30
2022-09-18T02:30:38.073Z,8.30
2022-09-18T02:32:40.393Z,8.30
2022-09-18T02:34:42.060Z,8.30
2022-09-18T02:36:43.651Z,8.30
2022-09-18T02:38:52.710Z,8.40
2022-09-18T02:41:00.045Z,8.40
2022-09-18T02:43:01.670Z,8.40
2022-09-18T02:45:03.495Z,8.40
2022-09-18T02:47:13.301Z,8.40
2022-09-18T02:49:22.034Z,8.40
2022-09-18T02:51:31.817Z,8.40
2022-09-18T02:53:37.505Z,8.40
2022-09-18T02:55:54.264Z,8.40
2022-09-18T02:57:59.053Z,8.40
2022-09-18T03:00:01.505Z,8.40
2022-09-18T03:02:03.581Z,8.40
2022-09-18T03:04:05.747Z,8.40
2022-09-18T03:06:07.809Z,8.50
2022-09-18T03:08:09.422Z,8.40
2022-09-18T03:10:11.674Z,8.50
2022-09-18T03:12:14.139Z,8.50
2022-09-18T03:14:15.961Z,8.50
2022-09-18T03:16:20.686Z,8.50
2022-09-18T03:18:22.663Z,8.50
2022-09-18T03:20:24.314Z,8.50
2022-09-18T03:22:25.941Z,8.50
2022-09-18T03:24:27.752Z,8.60
2022-09-18T03:26:29.414Z,8.60
2022-09-18T03:28:31.748Z,8.60
2022-09-18T03:30:33.357Z,8.60
2022-09-18T03:32:34.970Z,8.60
2022-09-18T03:34:36.643Z,8.60
2022-09-18T03:36:38.263Z,8.60
2022-09-18T03:38:40.985Z,8.60
2022-09-18T03:40:47.689Z,8.70
2022-09-18T03:42:50.770Z,8.60
2022-09-18T03:44:52.913Z,8.60
2022-09-18T03:46:54.580Z,8.60
2022-09-18T03:48:56.362Z,8.60
2022-09-18T03:50:58.043Z,8.70
2022-09-18T03:52:59.692Z,8.70
2022-09-18T03:55:01.342Z,8.70
2022-09-18T03:57:02.999Z,8.70
2022-09-18T03:59:04.810Z,8.70
2022-09-18T04:01:07.007Z,8.70
2022-09-18T04:03:08.678Z,8.70
2022-09-18T04:05:10.376Z,8.70
2022-09-18T04:07:12.016Z,8.70
2022-09-18T04:09:13.642Z,8.70
2022-09-18T04:11:15.344Z,8.70
2022-09-18T04:13:16.958Z,8.70
2022-09-18T04:15:19.212Z,8.70
2022-09-18T04:17:21.053Z,8.70
2022-09-18T04:19:22.657Z,8.70
2022-09-18T04:21:24.481Z,8.70
2022-09-18T04:23:26.169Z,8.70
2022-09-18T04:25:27.931Z,8.70
2022-09-18T04:27:29.672Z,8.70
2022-09-18T04:29:31.312Z,8.70
2022-09-18T04:31:33.069Z,8.70
2022-09-18T04:33:34.866Z,8.70
2022-09-18T04:35:36.538Z,8.70
2022-09-18T04:37:38.237Z,8.70
2022-09-18T04:39:40.340Z,8.80
2022-09-18T04:41:42.002Z,8.80
2022-09-18T04:43:43.579Z,8.80
2022-09-18T04:45:45.589Z,8.80
2022-09-18T04:47:47.554Z,8.80
2022-09-18T04:49:49.203Z,8.80
2022-09-18T04:51:50.828Z,8.80
2022-09-18T04:53:52.428Z,8.90
2022-09-18T04:55:54.104Z,8.90
2022-09-18T04:57:55.815Z,8.80
2022-09-18T04:59:57.456Z,8.90
2022-09-18T05:01:59.687Z,8.80
2022-09-18T05:04:01.528Z,8.90
2022-09-18T05:06:03.254Z,8.90
2022-09-18T05:08:05.024Z,8.90
2022-09-18T05:10:08.668Z,8.90
2022-09-18T05:12:10.526Z,8.90
2022-09-18T05:14:12.230Z,8.90
2022-09-18T05:16:13.976Z,8.90
2022-09-18T05:18:15.635Z,8.90
2022-09-18T05:20:17.266Z,9.00
2022-09-18T05:22:18.938Z,8.90
2022-09-18T05:24:20.590Z,8.90
2022-09-18T05:26:22.228Z,8.90
2022-09-18T05:28:23.843Z,8.90
2022-09-18T05:30:26.478Z,8.90
2022-09-18T05:32:28.108Z,8.90
2022-09-18T05:34:29.761Z,8.90
2022-09-18T05:36:31.416Z,8.90
2022-09-18T05:38:33.399Z,8.90
2022-09-18T05:40:36.366Z,8.90
2022-09-18T05:42:44.361Z,8.90
2022-09-18T05:44:45.962Z,9.00
2022-09-18T05:46:48.285Z,9.00
2022-09-18T05:48:50.263Z,9.00
2022-09-18T05:50:52.121Z,9.00
2022-09-18T05:53:07.186Z,9.00
2022-09-18T05:55:08.885Z,9.00
2022-09-18T05:57:10.572Z,9.00
2022-09-18T05:59:12.411Z,9.00
2022-09-18T06:01:14.553Z,9.10
2022-09-18T06:03:16.637Z,9.00
2022-09-18T06:05:18.381Z,9.00
2022-09-18T06:07:20.189Z,9.00
2022-09-18T06:09:22.072Z,9.00
2022-09-18T06:11:23.746Z,9.10
2022-09-18T06:13:25.385Z,9.10
2022-09-18T06:15:26.999Z,9.10
2022-09-18T06:17:28.603Z,9.10
2022-09-18T06:19:30.278Z,9.10
2022-09-18T06:21:31.899Z,9.20
2022-09-18T06:23:33.661Z,9.10
2022-09-18T06:25:35.988Z,9.20
2022-09-18T06:27:37.578Z,9.20
2022-09-18T06:29:39.181Z,9.20
2022-09-18T06:31:40.804Z,9.30
2022-09-18T06:33:42.498Z,9.30
2022-09-18T06:35:44.244Z,9.20
2022-09-18T06:37:46.041Z,9.30
2022-09-18T06:39:47.709Z,9.30
2022-09-18T06:41:49.833Z,9.30
2022-09-18T06:43:51.503Z,9.30
2022-09-18T06:45:54.102Z,9.30
2022-09-18T06:47:55.888Z,9.30
2022-09-18T06:49:57.613Z,9.30
2022-09-18T06:51:59.328Z,9.30
2022-09-18T06:54:00.998Z,9.40
2022-09-18T06:56:03.499Z,9.40
2022-09-18T06:58:05.149Z,9.40
2022-09-18T07:00:07.275Z,9.40
2022-09-18T07:02:17.288Z,9.40
2022-09-18T07:04:21.062Z,9.40
2022-09-18T07:06:22.772Z,9.40
2022-09-18T07:08:24.440Z,9.40
2022-09-18T07:10:26.493Z,9.40
2022-09-18T07:12:29.334Z,9.40
2022-09-18T07:14:31.030Z,9.30
2022-09-18T07:16:32.706Z,9.40
2022-09-18T07:18:34.666Z,9.30
2022-09-18T07:20:36.349Z,9.40
2022-09-18T07:22:38.509Z,9.30
2022-09-18T07:24:40.178Z,9.30
2022-09-18T07:26:41.788Z,9.30
2022-09-18T07:28:43.418Z,9.40
2022-09-18T07:30:45.322Z,9.40
2022-09-18T07:32:47.209Z,9.40
2022-09-18T07:34:48.962Z,9.40
2022-09-18T07:36:50.635Z,9.40
2022-09-18T07:38:52.572Z,9.40
2022-09-18T07:40:54.510Z,9.40
2022-09-18T07:43:03.114Z,9.40
2022-09-18T07:45:05.907Z,9.40
2022-09-18T07:47:07.782Z,9.50
2022-09-18T07:49:09.488Z,9.40
2022-09-18T07:51:11.201Z,9.50
2022-09-18T07:53:12.870Z,9.50
2022-09-18T07:55:14.477Z,9.50
2022-09-18T07:57:16.140Z,9.60
2022-09-18T07:59:17.774Z,9.50
2022-09-18T08:01:19.446Z,9.50
2022-09-18T08:03:21.098Z,9.50
2022-09-18T08:05:22.756Z,9.60
2022-09-18T08:07:24.499Z,9.50
2022-09-18T08:09:26.375Z,9.60
2022-09-18T08:11:28.201Z,9.60
2022-09-18T08:13:29.958Z,9.60
2022-09-18T08:15:32.104Z,9.70
2022-09-18T08:17:33.736Z,9.70
2022-09-18T08:19:35.357Z,9.70
2022-09-18T08:21:37.689Z,9.80
2022-09-18T08:23:39.404Z,9.70
2022-09-18T08:25:42.139Z,9.70
2022-09-18T08:27:44.170Z,9.80
2022-09-18T08:29:45.963Z,9.80
2022-09-18T08:31:48.003Z,9.70
2022-09-18T08:33:49.681Z,9.70
2022-09-18T08:35:51.351Z,9.80
2022-09-18T08:37:53.023Z,9.80
2022-09-18T08:39:54.710Z,9.80
2022-09-18T08:42:33.411Z,9.70
2022-09-18T08:44:47.961Z,9.80
2022-09-18T08:47:08.356Z,9.70
2022-09-18T08:49:18.661Z,9.70
2022-09-18T08:51:26.392Z,9.70
2022-09-18T08:53:48.342Z,9.80
2022-09-18T08:55:51.653Z,9.80
2022-09-18T08:57:59.029Z,9.90
2022-09-18T09:00:09.461Z,9.90
2022-09-18T09:02:35.535Z,10.00
2022-09-18T09:04:37.268Z,10.00
2022-09-18T09:06:52.487Z,10.10
2022-09-18T09:09:15.900Z,10.10
2022-09-18T09:11:38.496Z,10.10
2022-09-18T09:13:51.908Z,10.10
2022-09-18T09:15:53.620Z,10.20
2022-09-18T09:18:13.651Z,10.10
2022-09-18T09:20:24.082Z,10.10
2022-09-18T09:22:34.233Z,10.10
2022-09-18T09:24:48.158Z,10.10
2022-09-18T09:26:51.649Z,10.20
2022-09-18T09:29:12.629Z,10.20
2022-09-18T09:31:15.936Z,10.20
2022-09-18T09:33:34.455Z,10.20
2022-09-18T09:35:44.801Z,10.20
2022-09-18T09:37:47.192Z,10.20
2022-09-18T09:39:52.387Z,10.30
2022-09-18T09:42:05.390Z,10.30
2022-09-18T09:44:21.040Z,10.30
2022-09-18T09:46:22.733Z,10.30
2022-09-18T09:48:30.242Z,10.40
2022-09-18T09:50:45.809Z,10.40
2022-09-18T09:52:47.655Z,10.40
2022-09-18T09:55:19.633Z,10.40
2022-09-18T09:57:41.537Z,10.40
2022-09-18T09:59:52.343Z,10.40
2022-09-18T10:02:06.368Z,10.50
2022-09-18T10:04:23.339Z,10.50
2022-09-18T10:06:40.159Z,10.50
2022-09-18T10:08:49.238Z,10.60
2022-09-18T10:10:50.979Z,10.60
2022-09-18T10:12:54.889Z,10.60
2022-09-18T10:15:01.950Z,10.70
2022-09-18T10:17:04.489Z,10.70
2022-09-18T10:19:06.150Z,10.70
2022-09-18T10:21:10.551Z,10.70
2022-09-18T10:23:15.092Z,10.70
2022-09-18T10:25:35.571Z,10.70
2022-09-18T10:27:37.183Z,10.70
2022-09-18T10:29:39.101Z,10.70
2022-09-18T10:31:57.470Z,10.70
2022-09-18T10:33:59.150Z,10.70
2022-09-18T10:36:02.819Z,10.70
2022-09-18T10:38:23.996Z,10.80
2022-09-18T10:40:30.779Z,10.80
2022-09-18T10:42:33.168Z,10.80
2022-09-18T10:44:35.933Z,10.80
2022-09-18T10:46:39.424Z,10.80
2022-09-18T10:48:43.923Z,10.80
2022-09-18T10:50:52.923Z,10.80
2022-09-18T10:52:54.756Z,10.80
2022-09-18T10:55:09.356Z,10.80
2022-09-18T10:57:30.693Z,10.80
2022-09-18T10:59:33.905Z,10.80
2022-09-18T11:01:36.216Z,10.80
2022-09-18T11:03:41.051Z,10.90
2022-09-18T11:05:59.595Z,10.80
2022-09-18T11:08:04.053Z,10.90
2022-09-18T11:10:08.791Z,10.80
2022-09-18T11:12:19.281Z,10.80
2022-09-18T11:14:25.432Z,10.80
2022-09-18T11:16:28.728Z,10.90
2022-09-18T11:18:31.267Z,10.90
2022-09-18T11:20:34.797Z,10.90
2022-09-18T11:22:41.564Z,10.90
2022-09-18T11:24:47.328Z,10.90
2022-09-18T11:26:50.458Z,11.00
2022-09-18T11:29:15.408Z,11.00
2022-09-18T11:31:19.455Z,11.00
2022-09-18T11:33:30.330Z,11.00
2022-09-18T11:35:32.552Z,11.00
2022-09-18T11:37:39.313Z,11.00
2022-09-18T11:39:45.363Z,11.00
2022-09-18T11:41:48.390Z,11.00
2022-09-18T11:44:22.674Z,11.00
2022-09-18T11:46:31.505Z,11.10
2022-09-18T11:48:51.573Z,11.10
2022-09-18T11:50:56.177Z,11.20
2022-09-18T11:53:04.298Z,11.20
2022-09-18T11:55:12.101Z,11.30
2022-09-18T11:57:19.088Z,11.40
2022-09-18T11:59:34.259Z,11.40
2022-09-18T12:01:45.733Z,11.50
2022-09-18T12:04:07.681Z,11.40
2022-09-18T12:06:27.919Z,11.40
2022-09-18T12:08:37.373Z,11.40
2022-09-18T12:10:44.568Z,11.40
2022-09-18T12:12:49.093Z,11.40
2022-09-18T12:15:09.573Z,11.40
2022-09-18T12:17:29.520Z,11.40
2022-09-18T12:19:34.219Z,11.40
2022-09-18T12:21:45.426Z,11.50
2022-09-18T12:23:47.057Z,11.40
2022-09-18T12:25:57.924Z,11.40
2022-09-18T12:28:07.105Z,11.40
2022-09-18T12:30:10.146Z,11.30
2022-09-18T12:32:11.744Z,11.30
2022-09-18T12:34:23.680Z,11.30
2022-09-18T12:36:47.843Z,11.30
2022-09-18T12:39:12.878Z,11.30
2022-09-18T12:41:23.989Z,11.30
2022-09-18T12:43:32.212Z,11.20
2022-09-18T12:45:43.016Z,11.30
2022-09-18T12:47:47.854Z,11.20
2022-09-18T12:49:58.972Z,11.20
2022-09-18T12:52:16.332Z,11.10
2022-09-18T12:54:20.731Z,11.10
2022-09-18T12:56:22.388Z,11.10
2022-09-18T12:58:30.164Z,11.10
2022-09-18T13:00:32.440Z,11.10
2022-09-18T13:02:53.087Z,11.10
2022-09-18T13:05:00.472Z,11.10
2022-09-18T13:07:04.153Z,11.00
2022-09-18T13:09:13.464Z,11.00
2022-09-18T13:11:20.065Z,11.00
2022-09-18T13:13:25.917Z,10.90
2022-09-18T13:15:34.723Z,10.90
2022-09-18T13:17:40.242Z,10.80
2022-09-18T13:19:54.405Z,10.80
2022-09-18T13:21:57.340Z,10.80
2022-09-18T13:23:59.685Z,10.90
2022-09-18T13:26:01.768Z,11.00
2022-09-18T13:28:04.882Z,11.10
2022-09-18T13:30:14.710Z,11.10
2022-09-18T13:32:18.054Z,11.10
2022-09-18T13:34:20.724Z,11.10
2022-09-18T13:36:23.715Z,11.10
2022-09-18T13:38:27.728Z,11.20
2022-09-18T13:40:29.518Z,11.20
2022-09-18T13:42:33.097Z,11.20
2022-09-18T13:44:36.018Z,11.30
2022-09-18T13:46:39.792Z,11.40
2022-09-18T13:48:46.665Z,11.40
2022-09-18T13:50:56.285Z,11.50
2022-09-18T13:52:59.492Z,11.60
2022-09-18T13:55:02.167Z,11.60
2022-09-18T13:57:04.650Z,11.70
2022-09-18T13:59:18.829Z,11.80
2022-09-18T14:01:35.807Z,11.90
2022-09-18T14:03:38.921Z,12.00
2022-09-18T14:05:41.472Z,12.10
2022-09-18T14:07:51.333Z,12.20
2022-09-18T14:09:56.014Z,12.30
2022-09-18T14:12:10.168Z,12.40
2022-09-18T14:14:12.185Z,12.50
2022-09-18T14:16:23.870Z,12.50
2022-09-18T14:18:43.739Z,12.60
2022-09-18T14:20:48.790Z,12.60
2022-09-18T14:22:50.514Z,12.60
2022-09-18T14:24:52.122Z,12.70
2022-09-18T14:27:14.085Z,12.60
2022-09-18T14:29:19.545Z,12.70
2022-09-18T14:31:27.815Z,12.70
2022-09-18T14:33:30.520Z,12.70
2022-09-18T14:35:38.578Z,12.70
2022-09-18T14:37:40.384Z,12.70
2022-09-18T14:39:42.045Z,12.70
2022-09-18T14:41:43.658Z,12.70
2022-09-18T14:43:49.574Z,12.70
2022-09-18T14:45:51.511Z,12.70
2022-09-18T14:47:53.273Z,12.70
2022-09-18T14:49:54.981Z,12.70
2022-09-18T14:52:03.898Z,12.70
2022-09-18T14:54:23.202Z,12.70
2022-09-18T14:56:24.813Z,12.70
2022-09-18T14:58:29.499Z,12.70
2022-09-18T15:00:31.937Z,12.70
2022-09-18T15:02:37.023Z,12.70
2022-09-18T15:04:41.606Z,12.60
2022-09-18T15:06:44.925Z,12.60
2022-09-18T15:08:48.116Z,12.50
2022-09-18T15:10:51.275Z,12.40
2022-09-18T15:12:53.830Z,12.40
2022-09-18T15:14:55.610Z,12.50
2022-09-18T15:16:58.846Z,12.40
2022-09-18T15:19:00.567Z,12.40
2022-09-18T15:21:03.395Z,12.40
2022-09-18T15:23:38.304Z,12.30
2022-09-18T15:25:42.582Z,12.40
2022-09-18T15:27:44.769Z,12.20
2022-09-18T15:29:56.159Z,12.20
2022-09-18T15:31:58.303Z,12.20
2022-09-18T15:34:03.143Z,12.10
2022-09-18T15:36:05.459Z,12.10
2022-09-18T15:38:08.374Z,12.10
2022-09-18T15:40:17.236Z,12.10
2022-09-18T15:42:24.769Z,12.10
2022-09-18T15:44:38.834Z,12.10
2022-09-18T15:46:40.528Z,12.00
2022-09-18T15:48:50.908Z,12.10
2022-09-18T15:51:06.084Z,12.00
2022-09-18T15:53:16.416Z,12.10
2022-09-18T15:55:22.782Z,12.00
2022-09-18T15:57:24.709Z,12.00
2022-09-18T15:59:33.937Z,12.00
2022-09-18T16:01:37.311Z,12.00
2022-09-18T16:03:39.235Z,11.90
2022-09-18T16:05:50.998Z,11.90
2022-09-18T16:07:58.691Z,11.90
2022-09-18T16:10:00.320Z,11.90
2022-09-18T16:12:02.528Z,11.90
2022-09-18T16:14:24.111Z,11.80
2022-09-18T16:16:25.859Z,11.80
2022-09-18T16:18:29.192Z,11.80
2022-09-18T16:20:38.235Z,11.80
2022-09-18T16:22:40.402Z,11.80
2022-09-18T16:24:42.042Z,11.80
2022-09-18T16:26:44.111Z,11.70
2022-09-18T16:28:46.866Z,11.70
2022-09-18T16:30:48.587Z,11.70
2022-09-18T16:32:50.268Z,11.70
2022-09-18T16:34:51.947Z,11.70
2022-09-18T16:36:55.183Z,11.70
2022-09-18T16:38:57.515Z,11.70
2022-09-18T16:40:59.212Z,11.70
2022-09-18T16:43:00.836Z,11.70
2022-09-18T16:45:02.713Z,11.60
2022-09-18T16:47:07.698Z,11.60
2022-09-18T16:49:13.599Z,11.60
2022-09-18T16:51:15.407Z,11.60
2022-09-18T16:53:17.044Z,11.60
2022-09-18T16:55:18.948Z,11.60
2022-09-18T16:57:21.757Z,11.60
2022-09-18T16:59:24.892Z,11.60
2022-09-18T17:01:28.124Z,11.60
2022-09-18T17:03:29.817Z,11.60
2022-09-18T17:05:31.572Z,11.60
2022-09-18T17:07:34.025Z,11.60
2022-09-18T17:09:35.709Z,11.60
2022-09-18T17:11:37.316Z,11.60
2022-09-18T17:13:38.944Z,11.60
2022-09-18T17:15:40.976Z,11.60
2022-09-18T17:17:43.550Z,11.60
2022-09-18T17:19:45.269Z,11.50
2022-09-18T17:21:47.214Z,11.50
2022-09-18T17:23:48.864Z,11.50
2022-09-18T17:25:50.569Z,11.50
2022-09-18T17:27:52.765Z,11.50
2022-09-18T17:29:54.482Z,11.50
2022-09-18T17:31:56.723Z,11.50
2022-09-18T17:33:58.454Z,11.50
2022-09-18T17:36:02.119Z,11.50
2022-09-18T17:38:03.967Z,11.50
2022-09-18T17:40:06.007Z,11.50
2022-09-18T17:42:08.006Z,11.50
2022-09-18T17:44:10.115Z,11.50
2022-09-18T17:46:12.773Z,11.50
2022-09-18T17:48:14.487Z,11.50
2022-09-18T17:50:19.149Z,11.50
2022-09-18T17:52:21.119Z,11.50
2022-09-18T17:54:23.021Z,11.50
2022-09-18T17:56:29.931Z,11.40
2022-09-18T17:58:32.751Z,11.40
2022-09-18T18:00:37.432Z,11.40
2022-09-18T18:02:39.458Z,11.40
2022-09-18T18:04:41.227Z,11.40
2022-09-18T18:06:43.007Z,11.40
2022-09-18T18:08:44.644Z,11.40
2022-09-18T18:10:46.596Z,11.40
2022-09-18T18:12:48.280Z,11.40
2022-09-18T18:14:49.965Z,11.40
2022-09-18T18:16:52.689Z,11.40
2022-09-18T18:18:55.852Z,11.40
2022-09-18T18:20:57.533Z,11.40
2022-09-18T18:22:59.160Z,11.30
2022-09-18T18:25:01.504Z,11.40
2022-09-18T18:27:04.538Z,11.40
2022-09-18T18:29:08.106Z,11.40
2022-09-18T18:31:12.210Z,11.30
2022-09-18T18:33:14.733Z,11.30
2022-09-18T18:35:16.533Z,11.30
2022-09-18T18:37:19.559Z,11.30
2022-09-18T18:39:21.292Z,11.30
2022-09-18T18:41:23.793Z,11.30
2022-09-18T18:43:25.485Z,11.30
2022-09-18T18:45:27.121Z,11.30
2022-09-18T18:47:29.636Z,11.30
2022-09-18T18:49:31.338Z,11.30
2022-09-18T18:51:36.007Z,11.30
2022-09-18T18:53:37.691Z,11.30
2022-09-18T18:55:39.316Z,11.30
2022-09-18T18:57:40.983Z,11.30
2022-09-18T18:59:43.906Z,11.30
2022-09-18T19:01:47.299Z,11.30
2022-09-18T19:03:50.753Z,11.30
2022-09-18T19:05:52.377Z,11.30
2022-09-18T19:07:54.044Z,11.30
2022-09-18T19:09:55.907Z,11.30
2022-09-18T19:11:57.651Z,11.30
2022-09-18T19:14:00.173Z,11.30
2022-09-18T19:16:02.571Z,11.30
2022-09-18T19:18:04.271Z,11.30
2022-09-18T19:20:06.194Z,11.30
2022-09-18T19:22:17.143Z,11.30
2022-09-18T19:24:18.902Z,11.30
2022-09-18T19:26:21.185Z,11.20
2022-09-18T19:28:23.344Z,11.30
2022-09-18T19:30:25.358Z,11.30
2022-09-18T19:32:26.991Z,11.30
2022-09-18T19:34:28.619Z,11.20
2022-09-18T19:36:31.315Z,11.20
2022-09-18T19:38:36.254Z,11.20
2022-09-18T19:40:38.199Z,11.20
2022-09-18T19:42:40.970Z,11.20
2022-09-18T19:44:46.894Z,11.20
2022-09-18T19:46:48.796Z,11.20
2022-09-18T19:48:51.017Z,11.10
2022-09-18T19:50:53.010Z,11.10
2022-09-18T19:52:55.244Z,11.10
2022-09-18T19:54:57.912Z,11.10
2022-09-18T19:56:59.510Z,11.10
2022-09-18T19:59:01.157Z,10.90
2022-09-18T20:01:07.104Z,11.10
2022-09-18T20:03:08.859Z,11.10
2022-09-18T20:05:10.690Z,11.10
2022-09-18T20:07:12.615Z,11.10
2022-09-18T20:09:14.258Z,11.10
2022-09-18T20:11:15.903Z,11.00
2022-09-18T20:13:17.604Z,11.00
2022-09-18T20:15:19.911Z,11.10
2022-09-18T20:17:21.514Z,11.10
2022-09-18T20:19:23.508Z,11.00
2022-09-18T20:21:25.208Z,11.00
2022-09-18T20:23:26.826Z,11.00
2022-09-18T20:25:28.566Z,11.00
2022-09-18T20:27:34.576Z,11.00
2022-09-18T20:29:36.191Z,11.00
2022-09-18T20:31:39.139Z,11.00
2022-09-18T20:33:40.908Z,11.00
2022-09-18T20:35:43.659Z,11.00
2022-09-18T20:37:45.309Z,11.00
2022-09-18T20:39:46.918Z,11.10
2022-09-18T20:41:50.080Z,11.00
2022-09-18T20:43:52.478Z,11.00
2022-09-18T20:45:57.785Z,11.10
2022-09-18T20:47:59.637Z,11.00
2022-09-18T20:50:06.591Z,11.00
2022-09-18T20:52:14.141Z,11.10
2022-09-18T20:54:16.299Z,11.00
2022-09-18T20:56:21.537Z,11.00
2022-09-18T20:58:23.144Z,11.10
2022-09-18T21:00:25.622Z,11.10
2022-09-18T21:02:27.379Z,11.10
2022-09-18T21:04:29.108Z,11.10
2022-09-18T21:06:33.403Z,11.10
2022-09-18T21:08:35.031Z,11.10
2022-09-18T21:10:46.635Z,11.10
2022-09-18T21:12:48.587Z,11.10
2022-09-18T21:14:50.748Z,11.10
2022-09-18T21:16:52.855Z,11.10
2022-09-18T21:18:57.662Z,11.20
2022-09-18T21:21:07.123Z,11.20
2022-09-18T21:23:28.481Z,11.20
2022-09-18T21:25:31.027Z,11.20
2022-09-18T21:27:32.661Z,11.20
2022-09-18T21:29:34.398Z,11.30
2022-09-18T21:31:38.454Z,11.30
2022-09-18T21:33:40.672Z,11.30
2022-09-18T21:35:52.976Z,11.30
2022-09-18T21:37:55.124Z,11.30
2022-09-18T21:39:56.845Z,11.30
2022-09-18T21:41:59.570Z,11.40
2022-09-18T21:44:04.061Z,11.40
2022-09-18T21:46:06.763Z,11.40
2022-09-18T21:48:09.071Z,11.30
2022-09-18T21:50:12.888Z,11.40
2022-09-18T21:52:14.679Z,11.40
2022-09-18T21:54:17.629Z,11.30
2022-09-18T21:56:20.028Z,11.30
2022-09-18T21:58:21.642Z,11.30
2022-09-18T22:00:23.245Z,11.20
2022-09-18T22:02:24.932Z,11.20
2022-09-18T22:04:28.058Z,11.30
2022-09-18T22:06:31.144Z,11.20
2022-09-18T22:08:32.787Z,11.30
2022-09-18T22:10:35.162Z,11.20
2022-09-18T22:12:38.952Z,11.20
2022-09-18T22:14:40.586Z,11.20
2022-09-18T22:16:44.057Z,11.30
2022-09-18T22:18:48.599Z,11.20
2022-09-18T22:20:50.263Z,11.00
2022-09-18T22:22:51.926Z,10.90
2022-09-18T22:24:53.552Z,10.70
2022-09-18T22:26:56.757Z,10.60
2022-09-18T22:28:58.934Z,10.40
2022-09-18T22:31:04.135Z,10.40
2022-09-18T22:33:05.968Z,10.30
2022-09-18T22:35:07.977Z,10.20
2022-09-18T22:37:09.858Z,10.10
2022-09-18T22:39:12.024Z,10.00
2022-09-18T22:41:13.766Z,10.00
2022-09-18T22:43:15.560Z,9.90
2022-09-18T22:45:18.079Z,9.90
2022-09-18T22:47:19.698Z,9.90
2022-09-18T22:49:22.559Z,9.80
2022-09-18T22:51:26.869Z,9.80
2022-09-18T22:53:28.479Z,9.80
2022-09-18T22:55:31.371Z,9.80
2022-09-18T22:57:33.300Z,9.80
2022-09-18T22:59:35.440Z,9.70
2022-09-18T23:01:41.588Z,9.70
2022-09-18T23:03:43.210Z,9.70
2022-09-18T23:05:45.036Z,9.60
2022-09-18T23:07:47.010Z,9.70
2022-09-18T23:09:48.601Z,9.70
2022-09-18T23:11:53.058Z,9.60
2022-09-18T23:13:56.079Z,9.60
2022-09-18T23:16:00.615Z,9.60
2022-09-18T23:18:02.301Z,9.60
2022-09-18T23:20:04.075Z,9.60
2022-09-18T23:22:06.421Z,9.60
2022-09-18T23:24:09.360Z,9.60
2022-09-18T23:26:12.885Z,9.70
2022-09-18T23:28:14.483Z,9.60
2022-09-18T23:30:16.508Z,9.60
2022-09-18T23:32:18.609Z,9.60
2022-09-18T23:34:23.787Z,9.70
2022-09-18T23:36:26.573Z,9.70
2022-09-18T23:38:28.241Z,9.70
2022-09-18T23:40:31.343Z,9.60
2022-09-18T23:42:32.974Z,9.60
2022-09-18T23:44:34.769Z,9.60
2022-09-18T23:46:36.513Z,9.60
2022-09-18T23:48:38.140Z,9.70
2022-09-18T23:50:43.217Z,9.70
2022-09-18T23:52:44.864Z,9.60
2022-09-18T23:54:46.452Z,9.70
2022-09-18T23:56:48.402Z,9.60
2022-09-18T23:58:54.377Z,9.70
